Time;durP1;ratioP1;P1;durP2;ratioP2;P2;SDS_P1;SDS_P2;PMS_P1;PMS_P2;Temp;Humidity;BMP_temperature;BMP_pressure;BME280_temperature;BME280_humidity;BME280_pressure;Samples;Min_cycle;Max_cycle;Signal;HPM_P1;HPM_P2
2022/05/09 00:00:15;;;;;;;;;;;;;;;8.44;100.00;102594.63;5078979;28;19964;-83
2022/05/09 00:02:42;;;;;;;;;;;;;;;8.40;100.00;102598.66;5062312;28;19924;-83
2022/05/09 00:05:08;;;;;;;;;;;;;;;8.34;100.00;102592.06;5094964;28;19970;-82
2022/05/09 00:07:34;;;;;;;;;;;;;;;8.30;100.00;102585.69;5097168;28;19926;-83
2022/05/09 00:10:00;;;;;;;;;;;;;;;8.31;100.00;102594.47;5079255;28;19916;-82
2022/05/09 00:12:25;;;;;;;;;;;;;;;8.32;100.00;102597.22;5078354;28;19917;-78
2022/05/09 00:14:51;;;;;;;;;;;;;;;8.25;100.00;102595.88;5077317;28;19923;-82
2022/05/09 00:17:16;;;;;;;;;;;;;;;8.21;100.00;102587.66;5077769;28;19916;-83
2022/05/09 00:19:41;;;;;;;;;;;;;;;8.21;100.00;102582.41;5078419;28;19924;-81
2022/05/09 00:22:07;;;;;;;;;;;;;;;8.17;100.00;102577.72;5095822;28;20009;-82
2022/05/09 00:24:33;;;;;;;;;;;;;;;8.13;100.00;102578.31;5077998;28;19934;-82
2022/05/09 00:26:58;;;;;;;;;;;;;;;8.09;100.00;102574.53;5078186;28;20352;-82
2022/05/09 00:29:24;;;;;;;;;;;;;;;8.08;100.00;102570.09;5077850;28;19918;-82
2022/05/09 00:31:51;;;;;;;;;;;;;;;8.04;100.00;102568.94;5077494;28;19920;-82
2022/05/09 00:34:18;;;;;;;;;;;;;;;8.06;100.00;102566.44;5074419;28;19921;-82
2022/05/09 00:36:44;;;;;;;;;;;;;;;8.05;100.00;102556.75;5074492;28;19924;-82
2022/05/09 00:39:09;;;;;;;;;;;;;;;8.00;100.00;102564.28;5057692;28;19921;-76
2022/05/09 00:41:37;;;;;;;;;;;;;;;7.99;100.00;102551.06;5075262;28;20021;-82
2022/05/09 00:44:07;;;;;;;;;;;;;;;8.01;100.00;102557.31;5074980;28;20335;-80
2022/05/09 00:46:33;;;;;;;;;;;;;;;7.99;100.00;102554.59;5057551;28;19951;-83
2022/05/09 00:49:02;;;;;;;;;;;;;;;7.93;100.00;102555.84;5074558;28;20591;-82
2022/05/09 00:51:29;;;;;;;;;;;;;;;7.87;100.00;102551.06;5074703;28;20010;-82
2022/05/09 00:53:56;;;;;;;;;;;;;;;7.82;100.00;102545.47;5073309;28;19917;-82
2022/05/09 00:56:25;;;;;;;;;;;;;;;7.77;100.00;102552.09;5074477;28;19916;-81
2022/05/09 00:58:58;;;;;;;;;;;;;;;7.75;100.00;102548.41;5073664;28;19924;-83
2022/05/09 01:01:24;;;;;;;;;;;;;;;7.75;100.00;102545.78;5073306;28;19916;-82
2022/05/09 01:03:58;;;;;;;;;;;;;;;7.75;100.00;102537.94;5073298;28;19974;-82
2022/05/09 01:06:24;;;;;;;;;;;;;;;7.75;100.00;102532.69;5074836;28;19917;-83
2022/05/09 01:08:49;;;;;;;;;;;;;;;7.74;100.00;102528.25;5074223;28;20343;-80
2022/05/09 01:11:18;;;;;;;;;;;;;;;7.72;100.00;102524.59;5075020;28;19993;-81
2022/05/09 01:13:46;;;;;;;;;;;;;;;7.65;100.00;102525.84;5074674;28;20284;-82
2022/05/09 01:16:12;;;;;;;;;;;;;;;7.60;100.00;102521.97;5075035;28;20000;-81
2022/05/09 01:18:38;;;;;;;;;;;;;;;7.58;100.00;102510.44;5074806;28;19928;-82
2022/05/09 01:21:27;;;;;;;;;;;;;;;7.54;100.00;102506.69;5074687;28;19917;-83
2022/05/09 01:23:56;;;;;;;;;;;;;;;7.54;100.00;102501.44;5074717;28;19950;-82
2022/05/09 01:26:21;;;;;;;;;;;;;;;7.52;100.00;102505.69;5074490;28;20001;-82
2022/05/09 01:28:47;;;;;;;;;;;;;;;7.47;100.00;102503.50;5074405;28;19920;-80
2022/05/09 01:31:14;;;;;;;;;;;;;;;7.47;100.00;102500.88;5074576;28;20338;-82
2022/05/09 01:33:44;;;;;;;;;;;;;;;7.47;100.00;102493.94;5074589;28;19944;-82
2022/05/09 01:36:11;;;;;;;;;;;;;;;7.45;100.00;102495.53;5080529;28;19920;-79
2022/05/09 01:38:52;;;;;;;;;;;;;;;7.48;100.00;102490.50;5084549;28;19979;-81
2022/05/09 01:41:17;;;;;;;;;;;;;;;7.42;100.00;102482.19;5086197;28;19920;-79
2022/05/09 01:43:50;;;;;;;;;;;;;;;7.44;100.00;102487.53;5076797;28;19974;-82
2022/05/09 01:46:19;;;;;;;;;;;;;;;7.39;100.00;102483.69;5077046;28;19938;-81
2022/05/09 01:51:28;;;;;;;;;;;;;;;7.36;100.00;102484.34;5093642;28;19928;-80
2022/05/09 01:53:56;;;;;;;;;;;;;;;7.32;100.00;102479.69;5088590;28;19917;-78
2022/05/09 01:56:23;;;;;;;;;;;;;;;7.33;100.00;102479.81;5085801;28;19917;-83
2022/05/09 01:58:49;;;;;;;;;;;;;;;7.34;100.00;102481.59;5074074;28;20384;-83
2022/05/09 02:01:16;;;;;;;;;;;;;;;7.26;100.00;102481.84;5073674;28;19920;-83
2022/05/09 02:04:02;;;;;;;;;;;;;;;7.26;100.00;102474.00;5074013;28;19939;-83
2022/05/09 02:06:27;;;;;;;;;;;;;;;7.28;100.00;102480.25;5072933;28;19920;-82
2022/05/09 02:08:52;;;;;;;;;;;;;;;7.26;100.00;102479.22;5072892;28;19916;-82
2022/05/09 02:11:18;;;;;;;;;;;;;;;7.23;100.00;102477.28;5073132;28;20268;-83
2022/05/09 02:13:45;;;;;;;;;;;;;;;7.27;100.00;102479.34;5073156;28;19916;-81
2022/05/09 02:16:11;;;;;;;;;;;;;;;7.32;100.00;102482.31;5073456;28;19917;-83
2022/05/09 02:18:36;;;;;;;;;;;;;;;7.36;100.00;102486.97;5072824;28;19927;-82
2022/05/09 02:21:02;;;;;;;;;;;;;;;7.39;100.00;102499.41;5073719;28;19916;-81
2022/05/09 02:23:27;;;;;;;;;;;;;;;7.40;100.00;102502.13;5072935;28;19999;-82
2022/05/09 02:25:53;;;;;;;;;;;;;;;7.41;100.00;102509.22;5072829;28;19924;-80
2022/05/09 02:28:21;;;;;;;;;;;;;;;7.41;100.00;102503.97;5056802;28;19924;-83
2022/05/09 02:30:47;;;;;;;;;;;;;;;7.44;100.00;102508.50;5072713;28;19923;-80
2022/05/09 02:33:12;;;;;;;;;;;;;;;7.46;100.00;102522.66;5080485;28;20283;-82
2022/05/09 02:35:38;;;;;;;;;;;;;;;7.43;100.00;102518.09;5075134;28;19976;-84
2022/05/09 02:38:04;;;;;;;;;;;;;;;7.39;100.00;102525.59;5074178;28;19945;-82
2022/05/09 02:40:29;;;;;;;;;;;;;;;7.33;100.00;102524.34;5074413;28;19919;-76
2022/05/09 02:42:57;;;;;;;;;;;;;;;7.26;100.00;102526.41;5092039;28;20010;-81
2022/05/09 02:45:23;;;;;;;;;;;;;;;7.24;100.00;102525.34;5074712;28;19916;-81
2022/05/09 02:47:49;;;;;;;;;;;;;;;7.23;100.00;102534.91;5074808;28;19942;-80
2022/05/09 02:50:17;;;;;;;;;;;;;;;7.18;100.00;102529.34;5074341;28;19916;-77
2022/05/09 02:52:43;;;;;;;;;;;;;;;7.19;100.00;102525.00;5074124;28;19924;-77
2022/05/09 02:55:10;;;;;;;;;;;;;;;7.11;100.00;102528.75;5074688;28;19916;-81
2022/05/09 02:57:36;;;;;;;;;;;;;;;7.07;100.00;102514.50;5073890;28;19939;-82
2022/05/09 03:00:06;;;;;;;;;;;;;;;7.04;100.00;102513.34;5074140;28;20368;-78
2022/05/09 03:02:31;;;;;;;;;;;;;;;7.03;100.00;102519.38;5073695;28;20002;-79
2022/05/09 03:04:57;;;;;;;;;;;;;;;7.01;100.00;102506.19;5074497;28;19989;-79
2022/05/09 03:07:22;;;;;;;;;;;;;;;7.02;100.00;102513.22;5073240;28;20456;-79
2022/05/09 03:09:48;;;;;;;;;;;;;;;7.00;100.00;102506.97;5073349;28;19916;-82
2022/05/09 03:12:14;;;;;;;;;;;;;;;6.97;100.00;102507.63;5074420;28;19924;-82
2022/05/09 03:14:49;;;;;;;;;;;;;;;6.92;100.00;102505.47;5073865;28;19967;-81
2022/05/09 03:17:15;;;;;;;;;;;;;;;6.93;100.00;102509.88;5074994;28;19916;-81
2022/05/09 03:19:40;;;;;;;;;;;;;;;6.92;100.00;102500.22;5074540;28;19912;-81
2022/05/09 03:22:07;;;;;;;;;;;;;;;6.91;100.00;102495.78;5074231;28;19928;-81
2022/05/09 03:24:33;;;;;;;;;;;;;;;6.87;100.00;102493.69;5092061;28;19923;-82
2022/05/09 03:26:59;;;;;;;;;;;;;;;6.90;100.00;102496.56;5074749;28;19916;-82
2022/05/09 03:29:25;;;;;;;;;;;;;;;6.90;100.00;102497.50;5074756;28;19919;-81
2022/05/09 03:31:52;;;;;;;;;;;;;;;6.86;100.00;102495.41;5074507;28;19923;-82
2022/05/09 03:34:19;;;;;;;;;;;;;;;6.83;100.00;102490.84;4993299;28;1864461;-80
2022/05/09 03:36:45;;;;;;;;;;;;;;;6.81;100.00;102484.59;5070589;28;19928;-80
2022/05/09 03:39:10;;;;;;;;;;;;;;;6.78;100.00;102484.34;5072212;28;19917;-83
2022/05/09 03:41:36;;;;;;;;;;;;;;;6.76;100.00;102480.72;5071649;28;19917;-81
2022/05/09 03:44:01;;;;;;;;;;;;;;;6.76;100.00;102477.19;5071599;28;20382;-81
2022/05/09 03:46:26;;;;;;;;;;;;;;;6.76;100.00;102480.72;5072376;28;19923;-81
2022/05/09 03:48:52;;;;;;;;;;;;;;;6.75;100.00;102486.72;5054744;28;19927;-81
2022/05/09 03:51:17;;;;;;;;;;;;;;;6.74;100.00;102478.75;5072084;28;19920;-80
2022/05/09 03:53:44;;;;;;;;;;;;;;;6.69;100.00;102480.13;5072572;28;19917;-81
2022/05/09 03:56:12;;;;;;;;;;;;;;;6.71;100.00;102475.91;5071505;28;19920;-77
2022/05/09 03:58:37;;;;;;;;;;;;;;;6.67;100.00;102472.13;5071808;28;19975;-81
2022/05/09 04:01:03;;;;;;;;;;;;;;;6.66;100.00;102470.31;5072837;28;19917;-82
2022/05/09 04:03:30;;;;;;;;;;;;;;;6.60;100.00;102464.59;5075247;28;19942;-81
2022/05/09 04:05:56;;;;;;;;;;;;;;;6.61;100.00;102459.47;5075717;28;19962;-80
2022/05/09 04:08:21;;;;;;;;;;;;;;;6.59;100.00;102465.41;5074870;28;19916;-82
2022/05/09 04:10:47;;;;;;;;;;;;;;;6.62;100.00;102457.78;5075182;28;19917;-82
2022/05/09 04:13:16;;;;;;;;;;;;;;;6.62;100.00;102453.47;5075447;28;20019;-77
2022/05/09 04:18:26;;;;;;;;;;;;;;;6.67;100.00;102456.44;5075870;28;19928;-81
2022/05/09 04:20:52;;;;;;;;;;;;;;;6.70;100.00;102456.66;5073825;28;19916;-78
2022/05/09 04:23:19;;;;;;;;;;;;;;;6.71;100.00;102449.72;5074407;28;20364;-75
2022/05/09 04:25:45;;;;;;;;;;;;;;;6.78;100.00;102452.03;5071305;28;19974;-74
2022/05/09 04:28:10;;;;;;;;;;;;;;;6.81;100.00;102458.41;5074262;28;19917;-81
2022/05/09 04:30:38;;;;;;;;;;;;;;;7.04;100.00;102454.03;5074592;28;19924;-81
2022/05/09 04:33:05;;;;;;;;;;;;;;;7.67;100.00;102460.41;5080091;28;19920;-74
2022/05/09 04:35:31;;;;;;;;;;;;;;;8.35;100.00;102467.91;5076456;28;20308;-75
2022/05/09 04:37:56;;;;;;;;;;;;;;;8.59;100.00;102481.88;5077394;28;20125;-75
2022/05/09 04:40:23;;;;;;;;;;;;;;;8.76;100.00;102489.25;5077470;28;19923;-77
2022/05/09 04:42:48;;;;;;;;;;;;;;;8.86;100.00;102501.28;5076991;28;19973;-79
2022/05/09 04:45:14;;;;;;;;;;;;;;;9.31;100.00;102497.34;5077455;28;20011;-75
2022/05/09 04:47:39;;;;;;;;;;;;;;;9.46;100.00;102510.63;5076866;28;19923;-76
2022/05/09 04:50:06;;;;;;;;;;;;;;;9.20;100.00;102515.81;5076941;28;19916;-76
2022/05/09 04:52:31;;;;;;;;;;;;;;;9.22;100.00;102514.22;5075630;28;19916;-77
2022/05/09 04:55:03;;;;;;;;;;;;;;;9.61;100.00;102525.59;5093305;28;19927;-79
2022/05/09 04:57:29;;;;;;;;;;;;;;;9.50;100.00;102528.41;5076274;28;19923;-76
2022/05/09 04:59:54;;;;;;;;;;;;;;;9.61;100.00;102523.88;5094538;28;19916;-77
2022/05/09 05:02:20;;;;;;;;;;;;;;;9.16;100.00;102526.13;5094543;28;19923;-79
2022/05/09 05:04:45;;;;;;;;;;;;;;;9.03;100.00;102530.47;5076004;28;20310;-78
2022/05/09 05:07:10;;;;;;;;;;;;;;;9.03;100.00;102518.22;5076778;28;19916;-82
2022/05/09 05:09:36;;;;;;;;;;;;;;;9.50;100.00;102522.25;5076730;28;19927;-75
2022/05/09 05:12:02;;;;;;;;;;;;;;;10.40;100.00;102537.81;5077160;28;19916;-78
2022/05/09 05:14:28;;;;;;;;;;;;;;;10.68;100.00;102547.44;5074994;28;19924;-78
2022/05/09 05:16:59;;;;;;;;;;;;;;;10.58;100.00;102563.47;5076366;28;19916;-76
2022/05/09 05:19:29;;;;;;;;;;;;;;;10.37;100.00;102561.31;5075914;28;19916;-80
2022/05/09 05:21:56;;;;;;;;;;;;;;;9.85;100.00;102547.34;5076333;28;19916;-80
2022/05/09 05:24:21;;;;;;;;;;;;;;;9.62;100.00;102549.38;5093484;28;19930;-78
2022/05/09 05:26:46;;;;;;;;;;;;;;;10.08;100.00;102546.22;5074439;28;19920;-81
2022/05/09 05:29:13;;;;;;;;;;;;;;;9.92;100.00;102551.31;5075300;28;20693;-73
2022/05/09 05:31:38;;;;;;;;;;;;;;;10.40;100.00;102550.97;5075767;28;19943;-75
2022/05/09 05:34:04;;;;;;;;;;;;;;;10.31;100.00;102549.44;5075458;28;20256;-80
2022/05/09 05:36:29;;;;;;;;;;;;;;;10.49;100.00;102550.66;5076827;28;19932;-79
2022/05/09 05:38:55;;;;;;;;;;;;;;;10.55;100.00;102544.84;5077109;28;19920;-79
2022/05/09 05:41:22;;;;;;;;;;;;;;;10.66;100.00;102554.34;5093429;28;19955;-81
2022/05/09 05:43:51;;;;;;;;;;;;;;;10.81;100.00;102543.84;5076471;28;20010;-80
2022/05/09 05:46:17;;;;;;;;;;;;;;;11.81;100.00;102554.22;5076890;28;19935;-79
2022/05/09 05:48:42;;;;;;;;;;;;;;;12.49;100.00;102566.00;5076235;28;19920;-80
2022/05/09 05:51:08;;;;;;;;;;;;;;;11.49;100.00;102572.59;5094882;28;19923;-80
2022/05/09 05:53:34;;;;;;;;;;;;;;;12.38;100.00;102575.97;5076174;28;19923;-79
2022/05/09 05:56:00;;;;;;;;;;;;;;;14.08;100.00;102587.56;5075730;28;20276;-80
2022/05/09 05:58:28;;;;;;;;;;;;;;;14.53;100.00;102590.59;5092338;28;19923;-78
2022/05/09 06:00:54;;;;;;;;;;;;;;;13.75;100.00;102592.94;5074291;28;19969;-75
2022/05/09 06:03:20;;;;;;;;;;;;;;;13.04;100.00;102589.25;5091494;28;20014;-74
2022/05/09 06:05:45;;;;;;;;;;;;;;;12.82;100.00;102577.53;5073912;28;19917;-76
2022/05/09 06:08:11;;;;;;;;;;;;;;;12.10;100.00;102581.41;5073997;28;19931;-77
2022/05/09 06:10:36;;;;;;;;;;;;;;;12.32;100.00;102579.19;5073080;28;20390;-75
2022/05/09 06:13:02;;;;;;;;;;;;;;;12.10;100.00;102584.94;5073676;28;19916;-74
2022/05/09 06:15:32;;;;;;;;;;;;;;;11.79;100.00;102569.03;5074138;28;20013;-76
2022/05/09 06:17:59;;;;;;;;;;;;;;;11.89;100.00;102575.78;5073876;28;19959;-75
2022/05/09 06:20:26;;;;;;;;;;;;;;;11.89;100.00;102576.69;5057625;28;19994;-77
2022/05/09 06:22:54;;;;;;;;;;;;;;;11.97;100.00;102579.81;5073372;28;19939;-79
2022/05/09 06:25:20;;;;;;;;;;;;;;;11.75;100.00;102575.88;5073896;28;19923;-80
2022/05/09 06:27:47;;;;;;;;;;;;;;;12.01;100.00;102574.78;5074414;28;20404;-76
2022/05/09 06:30:13;;;;;;;;;;;;;;;12.08;100.00;102580.44;5074116;28;19922;-77
2022/05/09 06:32:39;;;;;;;;;;;;;;;12.87;100.00;102588.34;5073371;28;19916;-79
2022/05/09 06:35:05;;;;;;;;;;;;;;;13.63;100.00;102596.78;5074116;28;19932;-75
2022/05/09 06:37:33;;;;;;;;;;;;;;;14.48;100.00;102610.66;5056319;28;19924;-75
2022/05/09 06:39:59;;;;;;;;;;;;;;;14.07;100.00;102604.25;5074093;28;20127;-76
2022/05/09 06:42:27;;;;;;;;;;;;;;;14.14;100.00;102604.66;5057349;28;19920;-75
2022/05/09 06:44:53;;;;;;;;;;;;;;;13.95;100.00;102601.91;5073466;28;20330;-82
2022/05/09 06:47:18;;;;;;;;;;;;;;;13.44;100.00;102599.34;5074168;28;19924;-77
2022/05/09 06:49:43;;;;;;;;;;;;;;;13.43;100.00;102600.16;5073761;28;19917;-75
2022/05/09 06:52:09;;;;;;;;;;;;;;;13.23;100.00;102591.13;5091163;28;20046;-75
2022/05/09 06:54:34;;;;;;;;;;;;;;;13.15;100.00;102587.19;5073293;28;19920;-76
2022/05/09 06:56:59;;;;;;;;;;;;;;;13.10;100.00;102589.59;5091609;28;19912;-76
2022/05/09 06:59:24;;;;;;;;;;;;;;;13.16;100.00;102592.56;5073171;28;19927;-77
2022/05/09 07:01:50;;;;;;;;;;;;;;;13.27;100.00;102594.03;5091673;28;19955;-76
2022/05/09 07:04:17;;;;;;;;;;;;;;;13.90;100.00;102599.03;5073586;28;20288;-76
2022/05/09 07:06:42;;;;;;;;;;;;;;;14.13;100.00;102596.63;5072665;28;19963;-73
2022/05/09 07:09:10;;;;;;;;;;;;;;;14.87;100.00;102605.47;5073497;28;19945;-74
2022/05/09 07:11:35;;;;;;;;;;;;;;;14.77;100.00;102611.19;5056873;28;20376;-78
2022/05/09 07:14:01;;;;;;;;;;;;;;;15.99;100.00;102612.19;5072930;28;20013;-75
2022/05/09 07:16:26;;;;;;;;;;;;;;;17.66;100.00;102616.78;5074377;28;19916;-75
2022/05/09 07:18:51;;;;;;;;;;;;;;;19.10;100.00;102640.13;5076612;28;19916;-73
2022/05/09 07:21:16;;;;;;;;;;;;;;;19.12;100.00;102639.28;5092473;28;19995;-74
2022/05/09 07:23:42;;;;;;;;;;;;;;;19.88;100.00;102646.75;5080113;28;19916;-76
2022/05/09 07:26:07;;;;;;;;;;;;;;;19.99;100.00;102650.59;5082797;28;19916;-75
2022/05/09 07:28:33;;;;;;;;;;;;;;;20.78;100.00;102648.06;5099688;28;19954;-76
2022/05/09 07:30:59;;;;;;;;;;;;;;;21.09;100.00;102639.78;5098658;28;19920;-79
2022/05/09 07:33:25;;;;;;;;;;;;;;;19.76;100.00;102633.91;5080797;28;19973;-75
2022/05/09 07:35:51;;;;;;;;;;;;;;;20.63;100.00;102643.25;5082598;28;19920;-76
2022/05/09 07:38:16;;;;;;;;;;;;;;;20.57;100.00;102640.41;5083121;28;19938;-78
2022/05/09 07:40:43;;;;;;;;;;;;;;;21.43;100.00;102636.00;5084379;28;19996;-78
2022/05/09 07:43:12;;;;;;;;;;;;;;;21.20;100.00;102643.59;5080132;28;19988;-77
2022/05/09 07:45:37;;;;;;;;;;;;;;;21.01;100.00;102634.28;5077541;28;20273;-74
2022/05/09 07:48:02;;;;;;;;;;;;;;;19.55;100.00;102631.59;5076532;28;20057;-74
2022/05/09 07:50:27;;;;;;;;;;;;;;;20.41;100.00;102633.78;5076931;28;19969;-74
2022/05/09 07:52:53;;;;;;;;;;;;;;;20.82;100.00;102641.00;5076205;28;19920;-76
2022/05/09 07:55:18;;;;;;;;;;;;;;;21.15;100.00;102640.81;5076481;28;19916;-79
2022/05/09 07:57:43;;;;;;;;;;;;;;;19.71;100.00;102638.25;5076292;28;19920;-76
2022/05/09 08:00:10;;;;;;;;;;;;;;;20.28;100.00;102629.03;5076294;28;19916;-75
2022/05/09 08:02:39;;;;;;;;;;;;;;;19.46;100.00;102629.56;5059538;28;20359;-79
2022/05/09 08:05:05;;;;;;;;;;;;;;;19.57;100.00;102639.66;5076461;28;19916;-79
2022/05/09 08:07:31;;;;;;;;;;;;;;;19.87;100.00;102631.56;5059325;28;20232;-79
2022/05/09 08:09:58;;;;;;;;;;;;;;;19.40;100.00;102633.84;5076246;28;19974;-77
2022/05/09 08:12:23;;;;;;;;;;;;;;;18.99;100.00;102632.69;5076515;28;20386;-78
2022/05/09 08:14:49;;;;;;;;;;;;;;;19.04;100.00;102627.47;5076006;28;19920;-79
2022/05/09 08:17:15;;;;;;;;;;;;;;;19.71;100.00;102632.91;5076226;28;20022;-79
2022/05/09 08:19:40;;;;;;;;;;;;;;;20.53;100.00;102635.84;5076221;28;19955;-79
2022/05/09 08:22:07;;;;;;;;;;;;;;;20.60;100.00;102637.81;5075733;28;19916;-77
2022/05/09 08:24:34;;;;;;;;;;;;;;;19.62;100.00;102636.22;5075667;28;19965;-78
2022/05/09 08:27:00;;;;;;;;;;;;;;;19.88;100.00;102630.72;5074555;28;19923;-78
2022/05/09 08:29:25;;;;;;;;;;;;;;;21.08;100.00;102636.19;5059911;28;19920;-77
2022/05/09 08:31:50;;;;;;;;;;;;;;;21.99;100.00;102631.69;5075468;28;19989;-79
2022/05/09 08:34:15;;;;;;;;;;;;;;;20.63;100.00;102637.88;5076205;28;19927;-76
2022/05/09 08:36:53;;;;;;;;;;;;;;;20.87;100.00;102625.06;5075302;28;20292;-76
2022/05/09 08:39:19;;;;;;;;;;;;;;;20.67;100.00;102636.22;5061441;28;19924;-77
2022/05/09 08:41:56;;;;;;;;;;;;;;;20.76;100.00;102623.03;5076130;28;20400;-78
2022/05/09 08:44:23;;;;;;;;;;;;;;;20.54;100.00;102624.28;5093967;28;19916;-77
2022/05/09 08:46:48;;;;;;;;;;;;;;;21.61;100.00;102624.78;5076428;28;19912;-80
2022/05/09 08:49:24;;;;;;;;;;;;;;;22.10;100.00;102634.53;5094438;28;19916;-79
2022/05/09 08:51:58;;;;;;;;;;;;;;;20.45;100.00;102624.97;5075822;28;20442;-79
2022/05/09 08:54:24;;;;;;;;;;;;;;;20.92;100.00;102626.94;5059950;28;19969;-79
2022/05/09 08:56:52;;;;;;;;;;;;;;;20.56;100.00;102619.88;5076591;28;19923;-80
2022/05/09 08:59:22;;;;;;;;;;;;;;;20.40;100.00;102618.63;5076227;28;19938;-79
2022/05/09 09:01:58;;;;;;;;;;;;;;;20.51;100.00;102613.53;5094261;28;20391;-74
2022/05/09 09:04:24;;;;;;;;;;;;;;;20.77;100.00;102603.44;5076243;28;19916;-80
2022/05/09 09:06:49;;;;;;;;;;;;;;;21.08;100.00;102614.75;5093736;28;19920;-80
2022/05/09 09:09:38;;;;;;;;;;;;;;;20.43;100.00;102610.66;5076109;28;19923;-79
2022/05/09 09:12:12;;;;;;;;;;;;;;;20.84;100.00;102611.59;5093509;28;19924;-78
2022/05/09 09:14:38;;;;;;;;;;;;;;;20.82;100.00;102613.31;5075777;28;19920;-79
2022/05/09 09:17:18;;;;;;;;;;;;;;;20.89;100.00;102602.75;5076037;28;19962;-80
2022/05/09 09:20:02;;;;;;;;;;;;;;;20.59;100.00;102598.53;5074525;28;19939;-78
2022/05/09 09:22:46;;;;;;;;;;;;;;;20.75;100.00;102602.47;5059244;28;20042;-78
2022/05/09 09:25:27;;;;;;;;;;;;;;;21.19;100.00;102589.97;5094369;28;20129;-79
2022/05/09 09:27:56;;;;;;;;;;;;;;;21.47;100.00;102596.75;5075613;28;19916;-80
2022/05/09 09:30:23;;;;;;;;;;;;;;;21.77;100.00;102599.13;5075673;28;19916;-78
2022/05/09 09:32:53;;;;;;;;;;;;;;;21.80;100.00;102591.16;5073945;28;20647;-77
2022/05/09 09:35:24;;;;;;;;;;;;;;;21.14;100.00;102579.16;5075065;28;20391;-77
2022/05/09 09:37:54;;;;;;;;;;;;;;;21.17;100.00;102582.81;5074855;28;19973;-78
2022/05/09 09:40:19;;;;;;;;;;;;;;;20.97;100.00;102581.50;5074688;28;20335;-77
2022/05/09 09:42:44;;;;;;;;;;;;;;;21.66;100.00;102574.81;5074634;28;19916;-75
2022/05/09 09:45:14;;;;;;;;;;;;;;;20.96;100.00;102580.63;5093186;28;19924;-78
2022/05/09 09:47:41;;;;;;;;;;;;;;;20.83;100.00;102581.22;5074736;28;19912;-76
2022/05/09 09:50:12;;;;;;;;;;;;;;;20.90;100.00;102575.13;5075133;28;19926;-78
2022/05/09 09:52:43;;;;;;;;;;;;;;;20.63;100.00;102580.75;5075220;28;19916;-78
2022/05/09 09:55:13;;;;;;;;;;;;;;;19.89;100.00;102571.03;5074906;28;19956;-78
2022/05/09 09:57:38;;;;;;;;;;;;;;;19.77;100.00;102568.06;5075068;28;19916;-76
2022/05/09 10:00:17;;;;;;;;;;;;;;;20.07;100.00;102565.22;5074106;28;19944;-79
2022/05/09 10:02:44;;;;;;;;;;;;;;;20.51;100.00;102565.34;5073606;28;19916;-75
2022/05/09 10:05:14;;;;;;;;;;;;;;;19.78;100.00;102559.16;5057219;28;20023;-75
2022/05/09 10:07:43;;;;;;;;;;;;;;;19.58;100.00;102559.53;5074024;28;19938;-75
2022/05/09 10:10:13;;;;;;;;;;;;;;;20.07;100.00;102555.44;5074013;28;19934;-76
2022/05/09 10:12:44;;;;;;;;;;;;;;;20.69;100.00;102548.81;5092194;28;20472;-76
2022/05/09 10:15:21;;;;;;;;;;;;;;;21.02;100.00;102555.75;5074357;28;19916;-76
2022/05/09 10:17:46;;;;;;;;;;;;;;;20.09;100.00;102561.72;5074157;28;20042;-74
2022/05/09 10:20:27;;;;;;;;;;;;;;;20.19;100.00;102557.47;5074104;28;20110;-75
2022/05/09 10:25:56;;;;;;;;;;;;;;;21.29;100.00;102557.16;5092608;28;19965;-75
2022/05/09 10:28:22;;;;;;;;;;;;;;;21.20;100.00;102551.63;5074474;28;20325;-75
2022/05/09 10:30:53;;;;;;;;;;;;;;;20.67;100.00;102547.88;5073682;28;19920;-78
2022/05/09 10:33:24;;;;;;;;;;;;;;;20.33;100.00;102533.72;5074387;28;20406;-80
2022/05/09 10:35:52;;;;;;;;;;;;;;;20.78;100.00;102532.94;5074621;28;19927;-77
2022/05/09 10:38:33;;;;;;;;;;;;;;;20.33;100.00;102536.41;5074344;28;19924;-77
2022/05/09 10:41:03;;;;;;;;;;;;;;;20.48;100.00;102533.19;5075028;28;19916;-77
2022/05/09 10:43:40;;;;;;;;;;;;;;;20.30;100.00;102536.34;5074440;28;19950;-78
2022/05/09 10:46:12;;;;;;;;;;;;;;;21.00;100.00;102536.03;5074650;28;19939;-79
2022/05/09 10:48:47;;;;;;;;;;;;;;;21.39;100.00;102534.97;5057886;28;19947;-79
2022/05/09 10:51:32;;;;;;;;;;;;;;;21.25;100.00;102518.66;5074439;28;19916;-79
2022/05/09 10:54:07;;;;;;;;;;;;;;;21.20;100.00;102530.19;5074811;28;20279;-80
2022/05/09 10:56:39;;;;;;;;;;;;;;;20.35;100.00;102520.38;5074230;28;19923;-79
2022/05/09 10:59:04;;;;;;;;;;;;;;;20.36;100.00;102512.41;5074166;28;19923;-78
2022/05/09 11:01:36;;;;;;;;;;;;;;;20.55;100.00;102516.34;5074245;28;19917;-79
2022/05/09 11:04:03;;;;;;;;;;;;;;;21.19;100.00;102515.84;5073761;28;19947;-78
2022/05/09 11:06:34;;;;;;;;;;;;;;;21.85;100.00;102527.75;5073559;28;19916;-79
2022/05/09 11:09:13;;;;;;;;;;;;;;;22.04;100.00;102523.56;5073971;28;19938;-76
2022/05/09 11:11:57;;;;;;;;;;;;;;;21.47;100.00;102522.66;5072166;28;19917;-80
2022/05/09 11:14:34;;;;;;;;;;;;;;;20.89;100.00;102519.75;5091936;28;19916;-78
2022/05/09 11:17:18;;;;;;;;;;;;;;;20.79;100.00;102512.44;5057806;28;19928;-80
2022/05/09 11:20:01;;;;;;;;;;;;;;;21.50;100.00;102506.66;5073150;28;20415;-80
2022/05/09 11:22:32;;;;;;;;;;;;;;;22.14;100.00;102512.97;5091553;28;20449;-76
2022/05/09 11:25:03;;;;;;;;;;;;;;;22.17;100.00;102507.66;5073222;28;20384;-78
2022/05/09 11:27:28;;;;;;;;;;;;;;;21.98;100.00;102517.22;5072993;28;19977;-74
2022/05/09 11:29:56;;;;;;;;;;;;;;;21.88;100.00;102503.66;5081296;28;19975;-78
2022/05/09 11:32:48;;;;;;;;;;;;;;;22.03;100.00;102500.31;5070796;28;20009;-77
2022/05/09 11:35:21;;;;;;;;;;;;;;;22.21;100.00;102504.16;5052188;28;20023;-77
2022/05/09 11:38:05;;;;;;;;;;;;;;;21.77;100.00;102502.59;5071142;28;19917;-79
2022/05/09 11:40:49;;;;;;;;;;;;;;;21.41;100.00;102489.44;5070933;28;19921;-77
2022/05/09 11:43:34;;;;;;;;;;;;;;;22.01;100.00;102491.34;5054699;28;19917;-78
2022/05/09 11:46:18;;;;;;;;;;;;;;;22.46;100.00;102491.97;5072400;28;19916;-79
2022/05/09 11:49:00;;;;;;;;;;;;;;;22.50;100.00;102484.88;5061662;28;19924;-80
2022/05/09 11:51:38;;;;;;;;;;;;;;;22.23;100.00;102479.16;5054376;28;19927;-77
2022/05/09 11:54:31;;;;;;;;;;;;;;;21.79;100.00;102476.72;5070716;28;20023;-79
2022/05/09 11:57:18;;;;;;;;;;;;;;;21.42;100.00;102464.47;5051391;28;19921;-78
2022/05/09 11:59:52;;;;;;;;;;;;;;;21.50;100.00;102465.53;5076431;28;20358;-81
2022/05/09 12:02:37;;;;;;;;;;;;;;;21.40;100.00;102456.41;5054717;28;19929;-81
2022/05/09 12:05:22;;;;;;;;;;;;;;;21.02;100.00;102453.06;5071505;28;19921;-81
2022/05/09 12:07:50;;;;;;;;;;;;;;;20.90;100.00;102451.06;5071773;28;19970;-80
2022/05/09 12:10:28;;;;;;;;;;;;;;;21.05;100.00;102445.09;5073415;28;19931;-81
2022/05/09 12:12:55;;;;;;;;;;;;;;;21.12;100.00;102442.53;5092703;28;19920;-81
2022/05/09 12:15:20;;;;;;;;;;;;;;;21.15;100.00;102449.75;5075449;28;19957;-79
2022/05/09 12:17:48;;;;;;;;;;;;;;;21.18;100.00;102441.75;5075833;28;19916;-78
2022/05/09 12:20:25;;;;;;;;;;;;;;;21.24;100.00;102432.91;5091897;28;19990;-79
2022/05/09 12:22:52;;;;;;;;;;;;;;;20.94;100.00;102427.06;5072259;28;19923;-81
2022/05/09 12:25:41;;;;;;;;;;;;;;;21.76;100.00;102436.44;5076050;28;19985;-83
2022/05/09 12:28:16;;;;;;;;;;;;;;;21.41;100.00;102431.44;5058864;28;19955;-81
2022/05/09 12:30:43;;;;;;;;;;;;;;;21.62;100.00;102419.25;5059207;28;19923;-80
2022/05/09 12:33:13;;;;;;;;;;;;;;;21.67;100.00;102414.88;5075399;28;19920;-79
2022/05/09 12:35:39;;;;;;;;;;;;;;;21.95;100.00;102415.25;5079782;28;19920;-81
2022/05/09 12:38:04;;;;;;;;;;;;;;;22.26;100.00;102413.88;5057143;28;19916;-80
2022/05/09 12:40:30;;;;;;;;;;;;;;;22.02;100.00;102403.75;5059592;28;19917;-77
2022/05/09 12:43:00;;;;;;;;;;;;;;;22.10;100.00;102407.41;5058946;28;19920;-79
2022/05/09 12:45:29;;;;;;;;;;;;;;;21.47;100.00;102404.72;5077205;28;20270;-79